createdAt,value
2023-02-25T00:01:26.252Z,100096.34
2023-02-25T00:03:59.258Z,100094.66
2023-02-25T00:06:33.414Z,100102.34
2023-02-25T00:09:06.452Z,100103.28
2023-02-25T00:11:39.382Z,100087.47
2023-02-25T00:14:12.369Z,100092.38
2023-02-25T00:16:45.591Z,100099.16
2023-02-25T00:19:18.472Z,100095.56
2023-02-25T00:21:52.852Z,100089.63
2023-02-25T00:24:25.744Z,100081.81
2023-02-25T00:26:58.671Z,100088.59
2023-02-25T00:29:31.950Z,100088.38
2023-02-25T00:32:04.952Z,100091.13
2023-02-25T00:34:37.959Z,100095.75
2023-02-25T00:37:12.100Z,100094.25
2023-02-25T00:39:45.625Z,100087.47
2023-02-25T00:42:19.651Z,100091.91
2023-02-25T00:44:52.490Z,100087.47
2023-02-25T00:47:25.326Z,100087.13
2023-02-25T00:49:58.325Z,100095.88
2023-02-25T00:52:33.749Z,100106.97
2023-02-25T00:55:06.937Z,100104.34
2023-02-25T00:57:39.977Z,100106.72
2023-02-25T01:00:16.277Z,100105.56
2023-02-25T01:02:49.168Z,100111.19
2023-02-25T01:05:21.962Z,100103.84
2023-02-25T01:07:56.279Z,100108.34
2023-02-25T01:10:29.777Z,100108.44
2023-02-25T01:13:04.792Z,100112.75
2023-02-25T01:15:38.329Z,100114.56
2023-02-25T01:18:11.202Z,100108.06
2023-02-25T01:20:44.003Z,100100.03
2023-02-25T01:23:18.676Z,100107.22
2023-02-25T01:25:51.447Z,100108.34
2023-02-25T01:28:24.318Z,100109.28
2023-02-25T01:30:57.723Z,100109.28
2023-02-25T01:33:30.605Z,100107.81
2023-02-25T01:36:03.457Z,100106.25
2023-02-25T01:38:37.838Z,100110.03
2023-02-25T01:41:10.680Z,100106.25
2023-02-25T01:43:44.152Z,100112.28
2023-02-25T01:46:17.156Z,100115.75
2023-02-25T01:48:50.442Z,100119.31
2023-02-25T01:51:27.079Z,100117.44
2023-02-25T01:54:03.660Z,100118.59
2023-02-25T01:56:38.122Z,100116.91
2023-02-25T01:59:13.535Z,100118.88
2023-02-25T02:01:46.466Z,100118.81
2023-02-25T02:04:23.054Z,100112.75
2023-02-25T02:06:57.217Z,100114.38
2023-02-25T02:09:32.537Z,100107.38
2023-02-25T02:12:07.981Z,100120.41
2023-02-25T02:14:43.180Z,100114.19
2023-02-25T02:17:22.052Z,100117.75
2023-02-25T02:20:10.233Z,100112.50
2023-02-25T02:22:54.949Z,100112.28
2023-02-25T02:26:04.939Z,100104.47
2023-02-25T02:29:07.519Z,100101.72
2023-02-25T02:31:55.807Z,100105.41
2023-02-25T02:34:41.260Z,100097.72
2023-02-25T02:37:21.743Z,100107.22
2023-02-25T02:40:14.907Z,100117.75
2023-02-25T02:42:58.372Z,100111.53
2023-02-25T02:45:40.089Z,100101.72
2023-02-25T02:48:20.207Z,100112.28
2023-02-25T02:50:58.269Z,100108.69
2023-02-25T02:53:37.580Z,100099.09
2023-02-25T02:56:14.279Z,100098.13
2023-02-25T02:58:53.840Z,100108.69
2023-02-25T03:01:31.499Z,100117.38
2023-02-25T03:04:09.996Z,100115.25
2023-02-25T03:06:46.758Z,100115.06
2023-02-25T03:09:22.418Z,100112.25
2023-02-25T03:11:56.441Z,100121.38
2023-02-25T03:14:29.247Z,100109.25
2023-02-25T03:17:08.316Z,100115.47
2023-02-25T03:19:46.745Z,100122.22
2023-02-25T03:22:27.712Z,100126.66
2023-02-25T03:25:06.572Z,100122.44
2023-02-25T03:27:43.505Z,100133.63
2023-02-25T03:30:25.511Z,100118.00
2023-02-25T03:33:02.267Z,100131.84
2023-02-25T03:35:39.969Z,100127.50
2023-02-25T03:38:20.529Z,100123.06
2023-02-25T03:40:56.302Z,100123.91
2023-02-25T03:43:34.413Z,100120.34
2023-02-25T03:46:08.683Z,100127.34
2023-02-25T03:48:42.465Z,100137.03
2023-02-25T03:51:22.431Z,100126.56
2023-02-25T03:53:55.578Z,100128.25
2023-02-25T03:56:43.305Z,100126.66
2023-02-25T03:59:17.807Z,100127.50
2023-02-25T04:01:53.152Z,100132.78
2023-02-25T04:04:26.238Z,100133.75
2023-02-25T04:07:00.493Z,100145.03
2023-02-25T04:09:33.771Z,100146.72
2023-02-25T04:12:08.114Z,100151.72
2023-02-25T04:14:40.942Z,100157.00
2023-02-25T04:17:14.604Z,100162.00
2023-02-25T04:19:47.390Z,100152.47
2023-02-25T04:22:21.524Z,100158.19
2023-02-25T04:24:54.356Z,100154.34
2023-02-25T04:27:27.382Z,100155.00
2023-02-25T04:30:00.565Z,100159.34
2023-02-25T04:32:33.515Z,100160.28
2023-02-25T04:35:11.514Z,100166.50
2023-02-25T04:37:45.678Z,100175.25
2023-02-25T04:40:20.827Z,100163.88
2023-02-25T04:42:53.639Z,100176.31
2023-02-25T04:45:27.176Z,100175.38
2023-02-25T04:48:00.366Z,100172.09
2023-02-25T04:50:33.204Z,100166.41
2023-02-25T04:53:07.560Z,100170.41
2023-02-25T04:55:42.279Z,100159.91
2023-02-25T04:58:15.100Z,100170.59
2023-02-25T05:00:49.293Z,100165.50
2023-02-25T05:03:22.122Z,100159.38
2023-02-25T05:05:55.772Z,100169.72
2023-02-25T05:08:29.944Z,100167.94
2023-02-25T05:11:03.541Z,100176.53
2023-02-25T05:13:36.356Z,100176.69
2023-02-25T05:16:12.059Z,100173.13
2023-02-25T05:18:47.350Z,100176.63
2023-02-25T05:21:21.853Z,100177.16
2023-02-25T05:23:56.041Z,100170.28
2023-02-25T05:26:29.050Z,100172.56
2023-02-25T05:29:01.916Z,100172.00
2023-02-25T05:31:34.851Z,100177.84
2023-02-25T05:34:07.829Z,100178.22
2023-02-25T05:36:41.184Z,100184.22
2023-02-25T05:39:15.514Z,100181.97
2023-02-25T05:41:48.855Z,100178.41
2023-02-25T05:44:22.128Z,100183.66
2023-02-25T05:46:55.035Z,100188.56
2023-02-25T05:49:27.810Z,100181.50
2023-02-25T05:52:00.659Z,100181.59
2023-02-25T05:54:34.838Z,100183.59
2023-02-25T05:57:07.962Z,100182.75
2023-02-25T05:59:40.831Z,100178.22
2023-02-25T06:02:13.863Z,100176.06
2023-02-25T06:04:47.881Z,100192.16
2023-02-25T06:07:20.686Z,100190.47
2023-02-25T06:09:55.122Z,100185.19
2023-02-25T06:12:27.964Z,100195.75
2023-02-25T06:15:01.327Z,100198.47
2023-02-25T06:17:34.236Z,100191.50
2023-02-25T06:20:08.855Z,100194.22
2023-02-25T06:22:41.782Z,100195.09
2023-02-25T06:25:15.969Z,100210.72
2023-02-25T06:27:48.893Z,100203.56
2023-02-25T06:30:21.681Z,100204.59
2023-02-25T06:32:54.923Z,100199.34
2023-02-25T06:35:28.687Z,100216.84
2023-02-25T06:38:01.583Z,100218.56
2023-02-25T06:40:35.740Z,100223.44
2023-02-25T06:43:08.618Z,100224.28
2023-02-25T06:45:42.069Z,100232.31
2023-02-25T06:48:15.056Z,100238.88
2023-02-25T06:50:47.872Z,100240.28
2023-02-25T06:53:20.771Z,100239.53
2023-02-25T06:55:54.946Z,100249.03
2023-02-25T06:58:27.920Z,100256.59
2023-02-25T07:01:01.036Z,100244.72
2023-02-25T07:03:33.862Z,100250.97
2023-02-25T07:06:08.792Z,100260.56
2023-02-25T07:08:41.818Z,100261.53
2023-02-25T07:11:29.064Z,100268.78
2023-02-25T07:14:02.270Z,100258.50
2023-02-25T07:16:35.278Z,100256.81
2023-02-25T07:19:08.377Z,100274.19
2023-02-25T07:21:41.710Z,100275.13
2023-02-25T07:24:14.543Z,100287.38
2023-02-25T07:26:48.684Z,100285.47
2023-02-25T07:29:21.505Z,100269.38
2023-02-25T07:31:54.423Z,100286.97
2023-02-25T07:34:27.514Z,100289.53
2023-02-25T07:37:00.447Z,100294.88
2023-02-25T07:39:33.218Z,100291.34
2023-02-25T07:42:07.404Z,100293.03
2023-02-25T07:44:42.251Z,100288.50
2023-02-25T07:47:15.467Z,100302.22
2023-02-25T07:49:48.436Z,100304.88
2023-02-25T07:52:21.518Z,100303.84
2023-02-25T07:54:54.314Z,100311.38
2023-02-25T07:57:29.025Z,100317.09
2023-02-25T08:00:01.880Z,100331.63
2023-02-25T08:02:45.802Z,100323.50
2023-02-25T08:05:21.832Z,100312.28
2023-02-25T08:07:54.667Z,100326.50
2023-02-25T08:10:27.800Z,100320.84
2023-02-25T08:13:02.052Z,100317.63
2023-02-25T08:15:35.041Z,100330.16
2023-02-25T08:18:07.882Z,100327.81
2023-02-25T08:20:40.679Z,100332.25
2023-02-25T08:23:13.617Z,100332.91
2023-02-25T08:25:46.410Z,100339.47
2023-02-25T08:28:20.526Z,100347.88
2023-02-25T08:30:55.061Z,100350.72
2023-02-25T08:33:29.819Z,100341.69
2023-02-25T08:36:14.381Z,100350.63
2023-02-25T08:38:47.518Z,100352.16
2023-02-25T08:41:21.523Z,100371.59
2023-02-25T08:43:57.499Z,100368.38
2023-02-25T08:46:32.961Z,100362.72
2023-02-25T08:49:06.878Z,100359.13
2023-02-25T08:51:40.688Z,100367.16
2023-02-25T08:54:15.001Z,100357.22
2023-02-25T08:56:51.158Z,100372.50
2023-02-25T08:59:25.210Z,100370.22
2023-02-25T09:01:58.698Z,100379.94
2023-02-25T09:04:31.510Z,100373.22
2023-02-25T09:07:04.496Z,100373.22
2023-02-25T09:09:37.293Z,100385.88
2023-02-25T09:12:10.784Z,100380.75
2023-02-25T09:14:44.874Z,100378.88
2023-02-25T09:17:17.972Z,100384.41
2023-02-25T09:19:50.884Z,100389.31
2023-02-25T09:22:23.946Z,100389.78
2023-02-25T09:24:57.135Z,100401.03
2023-02-25T09:27:29.893Z,100400.22
2023-02-25T09:30:04.593Z,100411.31
2023-02-25T09:32:37.644Z,100413.31
2023-02-25T09:35:12.370Z,100417.78
2023-02-25T09:37:45.205Z,100428.47
2023-02-25T09:40:22.684Z,100432.91
2023-02-25T09:43:07.451Z,100437.06
2023-02-25T09:45:47.113Z,100449.50
2023-02-25T09:48:25.742Z,100456.03
2023-02-25T09:51:04.826Z,100461.50
2023-02-25T09:53:42.589Z,100449.41
2023-02-25T09:56:17.714Z,100459.09
2023-02-25T09:58:56.068Z,100470.91
2023-02-25T10:01:36.620Z,100479.31
2023-02-25T10:04:17.252Z,100500.06
2023-02-25T10:06:52.627Z,100479.03
2023-02-25T10:09:33.377Z,100466.72
2023-02-25T10:12:14.326Z,100484.44
2023-02-25T10:15:00.753Z,100490.53
2023-02-25T10:17:46.413Z,100478.50
2023-02-25T10:20:44.294Z,100495.31
2023-02-25T10:23:31.173Z,100499.25
2023-02-25T10:26:07.213Z,100489.59
2023-02-25T10:28:42.933Z,100489.34
2023-02-25T10:31:19.270Z,100492.94
2023-02-25T10:33:54.710Z,100490.81
2023-02-25T10:36:31.955Z,100490.81
2023-02-25T10:39:05.270Z,100499.16
2023-02-25T10:41:38.756Z,100497.94
2023-02-25T10:44:14.013Z,100493.72
2023-02-25T10:46:54.204Z,100509.25
2023-02-25T10:49:30.189Z,100518.44
2023-02-25T10:52:06.171Z,100505.59
2023-02-25T10:54:48.046Z,100502.38
2023-02-25T10:57:27.355Z,100503.34
2023-02-25T11:00:01.627Z,100502.47
2023-02-25T11:02:42.268Z,100496.97
2023-02-25T11:05:32.372Z,100501.22
2023-02-25T11:08:08.000Z,100511.16
2023-02-25T11:10:40.845Z,100516.34
2023-02-25T11:13:29.042Z,100504.94
2023-02-25T11:16:07.024Z,100521.19
2023-02-25T11:18:40.971Z,100520.81
2023-02-25T11:21:16.133Z,100510.56
2023-02-25T11:23:51.002Z,100521.56
2023-02-25T11:26:30.162Z,100521.19
2023-02-25T11:29:07.859Z,100517.84
2023-02-25T11:31:43.440Z,100521.72
2023-02-25T11:34:22.391Z,100518.69
2023-02-25T11:36:59.081Z,100522.78
2023-02-25T11:39:32.477Z,100549.97
2023-02-25T11:42:24.124Z,100542.13
2023-02-25T11:45:01.378Z,100543.84
2023-02-25T11:47:38.242Z,100542.63
2023-02-25T11:50:24.924Z,100543.78
2023-02-25T11:53:09.091Z,100545.03
2023-02-25T11:55:53.676Z,100545.94
2023-02-25T11:58:40.140Z,100536.28
2023-02-25T12:01:20.018Z,100528.75
2023-02-25T12:04:09.441Z,100528.66
2023-02-25T12:07:14.495Z,100543.34
2023-02-25T12:10:18.967Z,100552.38
2023-02-25T12:13:13.590Z,100546.84
2023-02-25T12:16:21.255Z,100550.00
2023-02-25T12:19:17.605Z,100543.78
2023-02-25T12:22:15.173Z,100532.63
2023-02-25T12:25:03.695Z,100539.16
2023-02-25T12:27:52.380Z,100538.69
2023-02-25T12:30:55.976Z,100549.91
2023-02-25T12:33:48.159Z,100554.53
2023-02-25T12:36:35.593Z,100552.81
2023-02-25T12:39:20.528Z,100559.75
2023-02-25T12:42:05.441Z,100550.97
2023-02-25T12:45:05.569Z,100560.34
2023-02-25T12:47:53.836Z,100555.94
2023-02-25T12:50:44.439Z,100550.13
2023-02-25T12:53:31.854Z,100557.06
2023-02-25T12:56:24.876Z,100565.25
2023-02-25T12:59:18.368Z,100570.50
2023-02-25T13:02:19.728Z,100568.66
2023-02-25T13:05:10.496Z,100573.81
2023-02-25T13:08:21.060Z,100566.00
2023-02-25T13:10:59.914Z,100561.88
2023-02-25T13:13:59.918Z,100569.88
2023-02-25T13:16:52.604Z,100572.88
2023-02-25T13:20:00.074Z,100575.63
2023-02-25T13:22:44.941Z,100575.28
2023-02-25T13:25:25.504Z,100575.78
2023-02-25T13:28:11.758Z,100580.00
2023-02-25T13:30:52.072Z,100584.25
2023-02-25T13:33:58.706Z,100593.19
2023-02-25T13:36:47.082Z,100596.44
2023-02-25T13:39:36.686Z,100585.91
2023-02-25T13:42:28.187Z,100600.22
2023-02-25T13:45:30.271Z,100601.59
2023-02-25T13:48:23.332Z,100604.06
2023-02-25T13:51:12.464Z,100607.28
2023-02-25T13:54:07.646Z,100621.91
2023-02-25T13:56:52.878Z,100617.75
2023-02-25T13:59:56.159Z,100614.22
2023-02-25T14:03:15.895Z,100615.72
2023-02-25T14:06:03.234Z,100616.28
2023-02-25T14:08:54.482Z,100620.75
2023-02-25T14:11:43.602Z,100616.28
2023-02-25T14:14:37.087Z,100632.19
2023-02-25T14:17:25.737Z,100625.88
2023-02-25T14:20:13.103Z,100633.97
2023-02-25T14:22:50.795Z,100639.56
2023-02-25T14:25:45.640Z,100633.88
2023-02-25T14:28:32.009Z,100645.22
2023-02-25T14:31:15.587Z,100655.16
2023-02-25T14:34:32.669Z,100655.25
2023-02-25T14:37:22.120Z,100658.94
2023-02-25T14:40:08.642Z,100661.09
2023-02-25T14:43:08.046Z,100658.88
2023-02-25T14:45:46.032Z,100669.44
2023-02-25T14:48:26.565Z,100667.78
2023-02-25T14:51:17.710Z,100665.81
2023-02-25T14:54:22.951Z,100673.84
2023-02-25T14:57:13.571Z,100679.56
